Time;durP1;ratioP1;P1;durP2;ratioP2;P2;SDS_P1;SDS_P2;PMS_P1;PMS_P2;Temp;Humidity;BMP_temperature;BMP_pressure;BME280_temperature;BME280_humidity;BME280_pressure;Samples;Min_cycle;Max_cycle;Signal;HPM_P1;HPM_P2
2023/07/23 00:00:27;;;;;;;29.55;12.55;;;19.70;99.90;;;;;;5114967;28;20061;-66
2023/07/23 00:02:53;;;;;;;18.00;11.55;;;19.60;99.90;;;;;;5115046;28;20028;-66
2023/07/23 00:05:20;;;;;;;18.67;11.65;;;19.50;99.90;;;;;;5115050;28;20058;-65
2023/07/23 00:07:46;;;;;;;22.73;11.57;;;19.50;99.90;;;;;;5115002;28;20024;-65
2023/07/23 00:10:12;;;;;;;18.05;11.80;;;19.60;99.90;;;;;;5115031;28;20116;-65
2023/07/23 00:12:38;;;;;;;22.85;12.73;;;19.60;99.90;;;;;;5114851;28;20036;-65
2023/07/23 00:15:05;;;;;;;18.13;12.02;;;19.50;99.90;;;;;;5114960;28;20110;-65
2023/07/23 00:17:30;;;;;;;21.00;13.40;;;19.50;99.90;;;;;;5115062;28;20207;-65
2023/07/23 00:19:56;;;;;;;24.40;13.93;;;19.60;99.90;;;;;;5114783;28;20200;-65
2023/07/23 00:22:23;;;;;;;45.28;15.85;;;19.50;99.90;;;;;;5098964;28;20489;-66
2023/07/23 00:24:49;;;;;;;53.60;17.27;;;19.50;99.90;;;;;;5094522;28;20348;-66
2023/07/23 00:27:15;;;;;;;39.28;17.33;;;19.50;99.90;;;;;;5094521;28;20016;-66
2023/07/23 00:29:41;;;;;;;28.42;16.85;;;19.50;99.90;;;;;;5093264;28;20473;-66
2023/07/23 00:32:08;;;;;;;28.85;17.35;;;19.50;99.90;;;;;;5094389;28;20028;-66
2023/07/23 00:34:34;;;;;;;29.73;17.05;;;19.60;99.90;;;;;;5093193;28;20028;-65
2023/07/23 00:37:00;;;;;;;41.30;22.73;;;19.60;99.90;;;;;;5094459;28;20024;-65
2023/07/23 00:39:28;;;;;;;45.63;24.90;;;19.70;99.90;;;;;;5093115;28;20105;-66
2023/07/23 00:41:54;;;;;;;48.63;26.92;;;19.70;99.90;;;;;;5093083;28;20396;-66
2023/07/23 00:44:20;;;;;;;54.53;26.80;;;19.70;99.90;;;;;;5093054;28;20028;-66
2023/07/23 00:46:46;;;;;;;52.00;27.83;;;19.60;99.90;;;;;;5093138;28;20028;-66
2023/07/23 00:49:12;;;;;;;68.68;28.95;;;19.70;99.90;;;;;;5094283;28;20032;-66
2023/07/23 00:51:39;;;;;;;89.90;29.55;;;19.70;99.90;;;;;;5094158;28;20028;-66
2023/07/23 00:54:06;;;;;;;97.85;32.67;;;19.70;99.90;;;;;;5093044;28;20028;-66
2023/07/23 00:56:37;;;;;;;112.38;33.83;;;19.60;99.90;;;;;;5094513;28;20028;-66
2023/07/23 00:59:03;;;;;;;106.00;32.42;;;19.60;99.90;;;;;;5096899;28;20028;-66
2023/07/23 01:01:30;;;;;;;104.72;35.42;;;19.60;99.90;;;;;;5098103;28;20393;-66
2023/07/23 01:03:56;;;;;;;93.82;34.15;;;19.60;99.90;;;;;;5098215;28;20032;-66
2023/07/23 01:06:23;;;;;;;90.43;36.95;;;19.60;99.90;;;;;;5096671;28;20032;-66
2023/07/23 01:08:50;;;;;;;92.53;35.75;;;19.60;99.90;;;;;;5098098;28;20032;-66
2023/07/23 01:11:16;;;;;;;86.60;35.03;;;19.60;99.90;;;;;;5097759;28;20538;-66
2023/07/23 01:13:44;;;;;;;91.28;35.83;;;19.60;99.90;;;;;;5096520;28;20060;-66
2023/07/23 01:16:10;;;;;;;91.53;34.03;;;19.70;99.90;;;;;;5097687;28;20521;-66
2023/07/23 01:18:37;;;;;;;95.95;35.65;;;19.70;99.90;;;;;;5096373;28;20050;-66
2023/07/23 01:21:04;;;;;;;95.72;35.00;;;19.60;99.90;;;;;;5101952;28;20480;-66
2023/07/23 01:23:32;;;;;;;93.75;34.63;;;19.60;99.90;;;;;;5116909;28;20027;-66
2023/07/23 01:25:58;;;;;;;108.15;38.25;;;19.70;99.90;;;;;;5117869;28;20038;-66
2023/07/23 01:28:24;;;;;;;144.02;40.30;;;19.70;99.90;;;;;;5116590;28;20040;-66
2023/07/23 01:30:55;;;;;;;173.98;45.10;;;19.80;99.90;;;;;;5117780;28;20027;-66
2023/07/23 01:33:21;;;;;;;;;;;19.70;99.90;;;;;;5118313;28;20079;-66
2023/07/23 01:35:47;;;;;;;153.55;40.92;;;19.70;99.90;;;;;;5116626;28;19963;-66
2023/07/23 01:38:15;;;;;;;127.70;39.90;;;19.70;99.90;;;;;;5116392;28;20039;-66
2023/07/23 01:40:42;;;;;;;125.53;38.42;;;19.70;99.90;;;;;;5116368;28;20038;-66
2023/07/23 01:43:07;;;;;;;116.90;40.42;;;19.70;99.90;;;;;;5116213;28;20066;-66
2023/07/23 01:45:33;;;;;;;119.85;44.25;;;19.70;99.90;;;;;;5117619;28;20020;-66
2023/07/23 01:47:59;;;;;;;107.78;40.13;;;19.70;99.90;;;;;;5117589;28;20127;-66
2023/07/23 01:50:25;;;;;;;125.25;43.05;;;19.60;99.90;;;;;;5117377;28;20570;-66
2023/07/23 01:52:51;;;;;;;119.30;44.95;;;19.60;99.90;;;;;;5116212;28;20023;-66
2023/07/23 01:55:17;;;;;;;114.38;40.83;;;19.70;99.90;;;;;;5117425;28;20024;-66
2023/07/23 01:57:44;;;;;;;153.88;50.30;;;19.70;99.90;;;;;;5116114;28;20109;-66
2023/07/23 02:00:10;;;;;;;176.95;55.85;;;19.70;99.90;;;;;;5116010;28;20028;-66
2023/07/23 02:02:39;;;;;;;165.85;53.47;;;19.70;99.90;;;;;;5117347;28;20863;-66
2023/07/23 02:05:06;;;;;;;158.90;53.92;;;19.70;99.90;;;;;;5115960;28;20480;-66
2023/07/23 02:07:32;;;;;;;179.75;56.05;;;19.70;99.90;;;;;;5115866;28;20054;-66
2023/07/23 02:09:58;;;;;;;183.40;54.35;;;19.60;99.90;;;;;;5115626;28;20122;-66
2023/07/23 02:12:23;;;;;;;185.27;55.38;;;19.60;99.90;;;;;;5116819;28;20076;-66
2023/07/23 02:14:50;;;;;;;202.73;57.47;;;19.60;99.90;;;;;;5117027;28;20031;-66
2023/07/23 02:17:15;;;;;;;182.00;56.83;;;19.60;99.90;;;;;;5115638;28;20024;-66
2023/07/23 02:19:42;;;;;;;184.88;59.13;;;19.60;99.90;;;;;;5115618;28;20034;-66
2023/07/23 02:22:08;;;;;;;186.43;57.28;;;19.60;99.90;;;;;;5101607;28;20052;-66
2023/07/23 02:24:34;;;;;;;187.27;60.88;;;19.70;99.90;;;;;;5095109;28;20032;-66
2023/07/23 02:27:00;;;;;;;186.85;61.50;;;19.70;99.90;;;;;;5094959;28;20032;-66
2023/07/23 02:29:26;;;;;;;173.68;57.25;;;19.70;99.90;;;;;;5095089;28;20444;-66
2023/07/23 02:31:52;;;;;;;179.48;62.28;;;19.70;99.90;;;;;;5096182;28;20024;-66
2023/07/23 02:34:18;;;;;;;198.15;64.07;;;19.70;99.90;;;;;;5096348;28;20044;-66
2023/07/23 02:36:47;;;;;;;246.88;69.55;;;19.80;99.90;;;;;;5096295;28;20086;-66
2023/07/23 02:39:13;;;;;;;203.52;59.53;;;19.80;99.90;;;;;;5096048;28;20066;-66
2023/07/23 02:41:40;;;;;;;216.52;64.53;;;19.70;99.90;;;;;;5094815;28;20081;-66
2023/07/23 02:44:06;;;;;;;225.02;65.22;;;19.70;99.90;;;;;;5096154;28;20411;-66
2023/07/23 02:46:32;;;;;;;235.05;66.35;;;19.80;99.90;;;;;;5096073;28;20545;-67
2023/07/23 02:48:58;;;;;;;230.60;65.68;;;19.80;99.90;;;;;;5094843;28;20028;-66
2023/07/23 02:51:24;;;;;;;251.98;65.18;;;19.80;99.90;;;;;;5095796;28;20124;-66
2023/07/23 02:53:50;;;;;;;241.23;66.95;;;19.80;99.90;;;;;;5095794;28;20035;-66
2023/07/23 02:56:15;;;;;;;247.80;66.65;;;19.70;99.90;;;;;;5094616;28;20060;-66
2023/07/23 02:58:41;;;;;;;278.48;70.35;;;19.80;99.90;;;;;;5095761;28;20020;-66
2023/07/23 03:01:09;;;;;;;269.35;70.97;;;19.70;99.90;;;;;;5094498;28;20574;-66
2023/07/23 03:03:38;;;;;;;267.35;66.70;;;19.70;99.90;;;;;;5094412;28;20028;-66
2023/07/23 03:06:08;;;;;;;301.95;68.63;;;19.70;99.90;;;;;;5095793;28;20036;-67
2023/07/23 03:08:34;;;;;;;187.95;47.60;;;19.70;99.90;;;;;;5095550;28;20485;-66
2023/07/23 03:11:01;;;;;;;149.85;42.78;;;19.80;99.90;;;;;;5094354;28;20039;-66
2023/07/23 03:13:27;;;;;;;113.35;34.40;;;19.80;99.90;;;;;;5095450;28;20102;-66
2023/07/23 03:15:53;;;;;;;204.27;49.75;;;19.80;99.90;;;;;;5094184;28;20028;-66
2023/07/23 03:18:19;;;;;;;188.73;47.13;;;19.90;99.90;;;;;;5095464;28;20102;-66
2023/07/23 03:20:45;;;;;;;238.30;60.33;;;19.80;99.90;;;;;;5078454;28;20164;-66
2023/07/23 03:23:12;;;;;;;258.42;64.20;;;19.80;99.90;;;;;;5115878;28;20035;-66
2023/07/23 03:25:38;;;;;;;241.25;55.42;;;19.90;99.90;;;;;;5115777;28;20027;-66
2023/07/23 03:28:04;;;;;;;235.23;60.40;;;19.80;99.90;;;;;;5115624;28;20027;-66
2023/07/23 03:30:30;;;;;;;243.85;57.72;;;19.80;99.90;;;;;;5115451;28;20051;-66
2023/07/23 03:32:56;;;;;;;217.32;55.78;;;19.70;99.90;;;;;;5114255;28;20036;-66
2023/07/23 03:35:23;;;;;;;216.98;52.30;;;19.60;99.90;;;;;;5115563;28;20385;-66
2023/07/23 03:37:50;;;;;;;187.63;52.40;;;19.60;99.90;;;;;;5114113;28;20023;-66
2023/07/23 03:40:16;;;;;;;187.93;51.38;;;19.70;99.90;;;;;;5115529;28;20050;-66
2023/07/23 03:42:42;;;;;;;182.32;50.38;;;19.70;99.90;;;;;;5115386;28;20103;-66
2023/07/23 03:45:08;;;;;;;182.65;51.30;;;19.70;99.90;;;;;;5114134;28;20063;-66
2023/07/23 03:47:35;;;;;;;165.73;48.33;;;19.60;99.90;;;;;;5115470;28;20099;-66
2023/07/23 03:50:02;;;;;;;200.75;53.40;;;19.60;99.90;;;;;;5115261;28;20054;-66
2023/07/23 03:52:27;;;;;;;162.68;48.35;;;19.50;99.90;;;;;;5113813;27;20065;-66
2023/07/23 03:54:53;;;;;;;137.40;42.85;;;19.50;99.90;;;;;;5115223;28;20032;-66
2023/07/23 03:57:21;;;;;;;137.82;45.88;;;19.70;99.90;;;;;;5113927;28;20023;-66
2023/07/23 03:59:47;;;;;;;138.18;44.38;;;19.70;99.90;;;;;;5113827;28;20034;-66
2023/07/23 04:02:13;;;;;;;134.25;43.08;;;19.80;99.90;;;;;;5115001;28;20036;-66
2023/07/23 04:04:40;;;;;;;116.70;39.45;;;19.80;99.90;;;;;;5113777;28;20028;-66
2023/07/23 04:07:07;;;;;;;132.85;44.38;;;19.80;99.90;;;;;;5096666;28;20038;-66
2023/07/23 04:09:34;;;;;;;127.10;41.25;;;19.80;99.90;;;;;;5115039;28;20028;-66
2023/07/23 04:12:01;;;;;;;131.90;41.35;;;19.80;99.90;;;;;;5113527;28;20127;-66
2023/07/23 04:14:27;;;;;;;126.47;40.30;;;19.80;99.90;;;;;;5114859;28;20066;-66
2023/07/23 04:16:54;;;;;;;123.82;40.22;;;19.80;99.90;;;;;;5114829;28;20024;-66
2023/07/23 04:19:21;;;;;;;145.60;44.65;;;19.80;99.90;;;;;;5096709;28;20031;-66
2023/07/23 04:21:47;;;;;;;185.25;47.92;;;19.80;99.90;;;;;;5102698;28;20056;-66
2023/07/23 04:24:14;;;;;;;192.38;49.58;;;19.90;99.90;;;;;;5093231;28;20469;-66
2023/07/23 04:26:40;;;;;;;186.30;48.45;;;19.80;99.90;;;;;;5094402;28;20428;-66
2023/07/23 04:29:08;;;;;;;176.57;47.88;;;19.80;99.90;;;;;;5093063;28;20035;-66
2023/07/23 04:31:34;;;;;;;171.45;46.03;;;19.80;99.90;;;;;;5094444;28;20110;-66
2023/07/23 04:34:00;;;;;;;166.55;47.58;;;19.70;99.90;;;;;;5098371;28;20035;-66
2023/07/23 04:36:28;;;;;;;169.90;47.90;;;19.80;99.90;;;;;;5098569;28;20032;-66
2023/07/23 04:38:54;;;;;;;186.27;48.88;;;19.80;99.90;;;;;;5098477;28;20036;-66
2023/07/23 04:41:19;;;;;;;158.32;45.20;;;19.90;99.90;;;;;;5097170;28;20050;-65
2023/07/23 04:43:46;;;;;;;164.88;46.38;;;19.90;99.90;;;;;;5098271;28;20111;-66
2023/07/23 04:46:12;;;;;;;178.35;46.08;;;19.90;99.90;;;;;;5096971;28;20055;-66
2023/07/23 04:48:38;;;;;;;174.15;47.88;;;19.90;99.90;;;;;;5098145;28;20035;-66
2023/07/23 04:51:06;;;;;;;156.70;46.50;;;19.90;99.90;;;;;;5097013;28;20115;-66
2023/07/23 04:53:33;;;;;;;158.15;44.35;;;19.90;99.90;;;;;;5098214;28;20058;-66
2023/07/23 04:56:00;;;;;;;165.35;47.13;;;19.90;99.90;;;;;;5098274;28;20028;-66
2023/07/23 04:58:26;;;;;;;145.15;43.72;;;19.80;99.90;;;;;;5096908;28;20028;-66
2023/07/23 05:00:53;;;;;;;134.35;42.63;;;19.90;99.90;;;;;;5096616;28;20077;-66
2023/07/23 05:03:19;;;;;;;134.45;41.22;;;19.90;99.90;;;;;;5097959;28;20115;-66
2023/07/23 05:05:47;;;;;;;126.95;41.58;;;19.90;99.90;;;;;;5096670;28;20520;-66
2023/07/23 05:08:13;;;;;;;127.40;42.95;;;19.90;99.90;;;;;;5096613;28;20036;-66
2023/07/23 05:10:39;;;;;;;119.97;41.80;;;19.90;99.90;;;;;;5096340;28;20032;-66
2023/07/23 05:13:05;;;;;;;125.15;41.92;;;19.90;99.90;;;;;;5097906;28;20020;-66
2023/07/23 05:15:31;;;;;;;131.18;43.00;;;19.90;99.90;;;;;;5097725;28;20028;-66
2023/07/23 05:17:57;;;;;;;144.85;44.10;;;20.00;99.90;;;;;;5079643;28;20034;-66
2023/07/23 05:20:23;;;;;;;152.00;45.72;;;20.00;99.90;;;;;;5096296;28;20473;-65
2023/07/23 05:22:50;;;;;;;159.02;46.10;;;20.00;99.90;;;;;;5116926;28;20341;-66
2023/07/23 05:25:16;;;;;;;166.18;49.05;;;20.00;99.90;;;;;;5117883;28;20263;-66
2023/07/23 05:27:42;;;;;;;159.93;46.45;;;20.10;99.90;;;;;;5116613;28;20114;-66
2023/07/23 05:30:08;;;;;;;148.80;45.67;;;20.00;99.90;;;;;;5117779;28;20511;-66
2023/07/23 05:32:34;;;;;;;147.98;45.70;;;20.10;99.90;;;;;;5117970;28;20045;-66
2023/07/23 05:35:00;;;;;;;138.63;46.60;;;20.10;99.90;;;;;;5117862;28;20067;-66
2023/07/23 05:37:26;;;;;;;151.20;46.83;;;20.10;99.90;;;;;;5116681;28;20080;-66
2023/07/23 05:39:53;;;;;;;147.18;47.47;;;20.10;99.90;;;;;;5116428;28;20035;-66
2023/07/23 05:42:20;;;;;;;137.93;44.72;;;20.20;99.90;;;;;;5117688;28;20403;-66
2023/07/23 05:44:46;;;;;;;148.07;47.78;;;20.20;99.90;;;;;;5117049;28;20388;-66
2023/07/23 05:47:11;;;;;;;142.57;48.38;;;20.30;99.90;;;;;;5116338;28;20050;-66
2023/07/23 05:49:37;;;;;;;154.90;48.55;;;20.20;99.90;;;;;;5117469;28;20031;-66
2023/07/23 05:52:04;;;;;;;148.07;49.42;;;20.30;99.90;;;;;;5117463;28;20085;-66
2023/07/23 05:54:30;;;;;;;140.90;46.17;;;20.30;99.90;;;;;;5117509;28;20054;-66
2023/07/23 05:56:56;;;;;;;146.32;47.50;;;20.50;99.90;;;;;;5117163;28;20023;-66
2023/07/23 05:59:22;;;;;;;128.68;44.30;;;20.60;99.90;;;;;;5117270;28;20024;-66
2023/07/23 06:01:49;;;;;;;139.82;46.17;;;20.60;99.90;;;;;;5116057;28;20532;-66
2023/07/23 06:04:15;;;;;;;118.28;41.88;;;20.70;99.90;;;;;;5117250;28;20047;-67
2023/07/23 06:06:41;;;;;;;128.50;45.30;;;20.70;99.90;;;;;;5117163;28;20381;-66
2023/07/23 06:09:07;;;;;;;112.18;41.10;;;20.80;99.90;;;;;;5117057;28;20024;-66
2023/07/23 06:11:33;;;;;;;110.47;39.20;;;20.80;99.90;;;;;;5117003;27;20024;-66
2023/07/23 06:13:59;;;;;;;116.82;41.25;;;20.90;99.90;;;;;;5116941;28;20070;-66
2023/07/23 06:16:25;;;;;;;112.20;39.80;;;21.10;99.90;;;;;;5081978;28;20040;-66
2023/07/23 06:18:51;;;;;;;116.60;42.83;;;21.10;99.90;;;;;;5116887;28;20024;-66
2023/07/23 06:21:17;;;;;;;115.65;42.03;;;21.10;99.90;;;;;;5110308;28;20050;-66
2023/07/23 06:23:43;;;;;;;112.22;42.03;;;21.20;99.90;;;;;;5096493;28;20106;-66
2023/07/23 06:26:09;;;;;;;92.90;36.33;;;21.30;99.90;;;;;;5096299;28;20446;-66
2023/07/23 06:28:35;;;;;;;109.50;39.63;;;21.40;99.90;;;;;;5096379;28;20024;-66
2023/07/23 06:31:01;;;;;;;93.93;39.00;;;21.40;99.90;;;;;;5096285;28;20126;-66
2023/07/23 06:33:27;;;;;;;94.95;39.03;;;21.50;99.90;;;;;;5094807;28;20036;-66
2023/07/23 06:35:53;;;;;;;101.97;38.75;;;21.60;99.90;;;;;;5096299;28;20036;-66
2023/07/23 06:38:19;;;;;;;82.60;36.65;;;21.70;99.90;;;;;;5095993;28;20035;-66
2023/07/23 06:40:52;;;;;;;84.70;35.97;;;21.70;99.90;;;;;;5096038;28;20040;-66
2023/07/23 06:43:19;;;;;;;98.30;38.33;;;21.80;99.90;;;;;;5094799;28;20059;-66
2023/07/23 06:45:47;;;;;;;90.78;38.78;;;21.80;99.90;;;;;;5096044;28;20035;-66
2023/07/23 06:48:13;;;;;;;80.65;37.28;;;21.90;99.90;;;;;;5095943;28;20045;-66
2023/07/23 06:50:39;;;;;;;83.30;38.53;;;21.90;99.90;;;;;;5095790;28;20032;-66
2023/07/23 06:53:05;;;;;;;79.15;35.85;;;22.10;99.90;;;;;;5096027;28;20459;-66
2023/07/23 06:55:55;;;;;;;86.22;39.03;;;22.10;99.90;;;;;;5093719;28;20055;-66
2023/07/23 06:58:21;;;;;;;76.97;37.00;;;22.10;99.90;;;;;;5095678;28;20024;-66
2023/07/23 07:00:47;;;;;;;79.82;38.15;;;22.30;99.90;;;;;;5094462;28;20059;-66
2023/07/23 07:03:12;;;;;;;84.03;37.58;;;22.40;99.90;;;;;;5095561;28;20032;-66
2023/07/23 07:05:38;;;;;;;78.25;37.83;;;22.60;99.90;;;;;;5095572;28;20036;-66
2023/07/23 07:08:04;;;;;;;80.30;38.92;;;22.80;99.90;;;;;;5094257;28;20032;-66
2023/07/23 07:10:30;;;;;;;75.03;35.38;;;22.80;99.90;;;;;;5095473;28;20028;-66
2023/07/23 07:12:56;;;;;;;81.90;40.28;;;22.80;99.90;;;;;;5094190;28;20025;-66
2023/07/23 07:15:22;;;;;;;74.97;36.72;;;22.80;99.90;;;;;;5094100;28;20028;-66
2023/07/23 07:17:48;;;;;;;85.32;40.40;;;22.70;99.90;;;;;;5095413;28;20096;-66
2023/07/23 07:20:14;;;;;;;82.90;38.03;;;22.80;99.90;;;;;;5095322;28;20032;-66
2023/07/23 07:22:40;;;;;;;69.65;35.72;;;23.00;99.90;;;;;;5113349;28;20024;-66
2023/07/23 07:25:06;;;;;;;71.60;36.47;;;23.00;99.90;;;;;;5115723;28;20495;-66
2023/07/23 07:27:32;;;;;;;79.45;39.25;;;22.90;99.90;;;;;;5115483;28;20038;-66
2023/07/23 07:29:59;;;;;;;72.32;36.13;;;23.00;99.90;;;;;;5115564;28;20031;-66
2023/07/23 07:32:25;;;;;;;76.10;38.72;;;23.20;99.90;;;;;;5114240;28;20049;-66
2023/07/23 07:34:51;;;;;;;77.38;38.78;;;23.40;99.90;;;;;;5115627;28;20032;-66
2023/07/23 07:37:16;;;;;;;90.82;40.10;;;23.50;99.90;;;;;;5114027;28;20015;-66
2023/07/23 07:39:43;;;;;;;64.45;33.65;;;23.70;99.90;;;;;;5115414;28;20027;-66
2023/07/23 07:42:09;;;;;;;72.20;36.80;;;23.80;99.90;;;;;;5115515;28;20042;-66
2023/07/23 07:44:35;;;;;;;65.70;33.78;;;24.00;99.90;;;;;;5115328;28;20473;-66
2023/07/23 07:47:01;;;;;;;63.55;33.72;;;24.10;99.90;;;;;;5097060;28;20108;-66
2023/07/23 07:49:27;;;;;;;67.85;35.55;;;23.90;99.90;;;;;;5096926;28;20032;-66
2023/07/23 07:51:52;;;;;;;66.22;32.90;;;23.90;99.90;;;;;;5113754;28;20028;-66
2023/07/23 07:54:18;;;;;;;65.35;34.97;;;24.10;99.90;;;;;;5113953;28;20413;-66
2023/07/23 07:56:44;;;;;;;66.20;34.22;;;24.30;99.90;;;;;;5115317;28;20028;-66
2023/07/23 07:59:11;;;;;;;66.03;33.88;;;24.70;99.90;;;;;;5115017;28;20026;-66
2023/07/23 08:01:37;;;;;;;64.97;34.90;;;25.00;99.90;;;;;;5113027;28;20449;-66
2023/07/23 08:04:06;;;;;;;67.22;33.47;;;25.10;99.90;;;;;;5113796;28;20035;-66
2023/07/23 08:06:33;;;;;;;59.88;33.08;;;25.30;99.90;;;;;;5114784;28;20031;-66
2023/07/23 08:09:02;;;;;;;59.58;32.47;;;25.50;99.90;;;;;;5113846;28;20035;-66
2023/07/23 08:11:29;;;;;;;56.80;31.77;;;25.60;99.90;;;;;;5114725;28;20027;-66
2023/07/23 08:13:56;;;;;;;58.55;32.97;;;25.80;99.90;;;;;;5113533;28;20047;-66
2023/07/23 08:16:22;;;;;;;59.05;32.55;;;26.10;99.90;;;;;;5115193;28;20422;-66
2023/07/23 08:18:49;;;;;;;58.92;31.63;;;26.30;99.90;;;;;;5114962;28;20043;-67
2023/07/23 08:21:15;;;;;;;50.97;30.63;;;26.40;99.90;;;;;;5107009;28;20404;-66
2023/07/23 08:23:41;;;;;;;51.85;29.98;;;26.50;99.90;;;;;;5093056;28;20036;-66
2023/07/23 08:26:08;;;;;;;50.20;29.25;;;26.60;99.90;;;;;;5093195;28;20488;-67
2023/07/23 08:28:38;;;;;;;47.15;27.70;;;27.10;99.90;;;;;;5093192;28;20094;-67
2023/07/23 08:31:04;;;;;;;48.67;27.55;;;27.40;99.90;;;;;;5094370;28;20032;-67
2023/07/23 08:33:32;;;;;;;49.40;27.35;;;27.20;97.00;;;;;;5094334;28;20457;-67
2023/07/23 08:36:00;;;;;;;51.78;29.98;;;27.00;98.20;;;;;;5093103;28;20020;-67
2023/07/23 08:38:27;;;;;;;50.30;28.58;;;27.30;99.90;;;;;;5092985;28;20043;-66
2023/07/23 08:41:00;;;;;;;44.67;27.23;;;27.10;97.80;;;;;;5094392;28;20032;-67
2023/07/23 08:44:04;;;;;;;46.35;27.52;;;27.10;96.90;;;;;;5093090;28;20127;-67
2023/07/23 08:46:30;;;;;;;46.03;26.63;;;26.90;99.50;;;;;;5093103;28;20024;-67
2023/07/23 08:49:08;;;;;;;49.17;28.35;;;27.20;97.20;;;;;;5094264;28;20058;-67
2023/07/23 08:51:54;;;;;;;46.03;27.33;;;27.30;96.30;;;;;;5094281;28;20465;-67
2023/07/23 08:54:21;;;;;;;46.35;26.80;;;26.90;96.70;;;;;;5093991;28;20035;-67
2023/07/23 08:56:47;;;;;;;49.80;28.95;;;26.70;97.70;;;;;;5094191;28;20091;-67
2023/07/23 08:59:13;;;;;;;50.55;27.67;;;27.10;99.90;;;;;;5094256;28;20024;-67
2023/07/23 09:01:41;;;;;;;43.53;27.63;;;27.60;99.30;;;;;;5094151;28;20036;-66
2023/07/23 09:04:10;;;;;;;47.80;27.42;;;28.00;96.50;;;;;;5092906;28;20032;-66
2023/07/23 09:06:36;;;;;;;45.63;27.40;;;27.90;97.30;;;;;;5094167;28;20032;-67
2023/07/23 09:09:07;;;;;;;38.97;24.52;;;28.70;97.20;;;;;;5075800;28;20477;-67
2023/07/23 09:11:35;;;;;;;44.72;27.55;;;28.60;95.00;;;;;;5092712;28;20085;-67
2023/07/23 09:14:14;;;;;;;46.20;27.58;;;28.50;94.40;;;;;;5075823;28;20380;-67
2023/07/23 09:16:46;;;;;;;44.90;27.60;;;28.90;94.00;;;;;;5092641;28;20035;-66
2023/07/23 09:19:21;;;;;;;41.45;25.77;;;29.00;94.40;;;;;;5096391;28;20453;-67
2023/07/23 09:21:47;;;;;;;44.38;26.50;;;29.40;94.70;;;;;;5106610;28;20043;-67
2023/07/23 09:24:14;;;;;;;43.25;26.08;;;29.60;91.90;;;;;;5116681;28;20038;-67
2023/07/23 09:26:41;;;;;;;42.47;26.13;;;29.90;90.20;;;;;;5116747;28;20034;-67
2023/07/23 09:29:11;;;;;;;41.63;26.92;;;29.20;90.60;;;;;;5117920;28;20111;-67
2023/07/23 09:31:42;;;;;;;43.45;25.48;;;29.20;90.40;;;;;;5117730;28;20059;-67
2023/07/23 09:34:09;;;;;;;36.35;22.08;;;29.40;91.40;;;;;;5117897;28;20051;-67
2023/07/23 09:36:35;;;;;;;38.25;23.50;;;29.60;88.50;;;;;;5117845;28;20057;-67
2023/07/23 09:39:07;;;;;;;45.58;26.35;;;30.10;84.00;;;;;;5117666;28;20031;-67
2023/07/23 09:41:36;;;;;;;36.72;23.65;;;30.30;85.10;;;;;;5118024;28;20384;-67
2023/07/23 09:44:13;;;;;;;38.92;23.25;;;30.40;79.80;;;;;;5117808;28;20106;-67
2023/07/23 09:46:45;;;;;;;32.42;22.23;;;30.50;83.30;;;;;;5117479;28;20053;-67
2023/07/23 09:49:14;;;;;;;34.65;21.77;;;29.90;78.70;;;;;;5117597;28;20058;-67
2023/07/23 09:51:50;;;;;;;32.28;20.95;;;29.60;79.20;;;;;;5117338;28;20380;-67
2023/07/23 09:54:17;;;;;;;33.80;20.55;;;29.80;82.80;;;;;;5117469;28;20376;-67
2023/07/23 09:56:45;;;;;;;29.52;19.13;;;29.60;87.70;;;;;;5117416;28;20063;-67
2023/07/23 09:59:12;;;;;;;36.50;20.90;;;29.70;84.10;;;;;;5082073;28;20036;-67
2023/07/23 10:01:39;;;;;;;31.70;19.60;;;29.60;80.50;;;;;;5116106;28;20036;-67
2023/07/23 10:04:05;;;;;;;29.20;18.67;;;29.70;86.10;;;;;;5099053;28;20031;-67
2023/07/23 10:06:31;;;;;;;30.25;18.73;;;29.90;83.00;;;;;;5117063;28;20555;-67
2023/07/23 10:09:00;;;;;;;28.10;17.75;;;30.10;80.00;;;;;;5117087;28;20110;-67
2023/07/23 10:11:26;;;;;;;28.75;17.35;;;30.50;77.40;;;;;;5116860;28;20032;-67
2023/07/23 10:13:53;;;;;;;26.02;18.33;;;30.90;75.70;;;;;;5117066;28;20034;-67
2023/07/23 10:16:27;;;;;;;30.08;18.38;;;31.10;73.70;;;;;;5115728;28;20033;-67
2023/07/23 10:18:56;;;;;;;94.65;41.53;;;31.20;81.00;;;;;;5117279;27;20027;-67
2023/07/23 10:21:22;;;;;;;106.20;42.95;;;31.40;74.00;;;;;;5109587;28;20048;-68
2023/07/23 10:23:56;;;;;;;74.70;33.63;;;30.60;77.20;;;;;;5096458;28;20435;-67
2023/07/23 10:26:34;;;;;;;54.25;26.90;;;31.10;78.30;;;;;;5095145;28;20082;-68
2023/07/23 10:29:11;;;;;;;65.95;31.20;;;31.20;73.20;;;;;;5096347;28;20030;-67
2023/07/23 10:31:40;;;;;;;67.00;31.23;;;31.10;70.80;;;;;;5096193;28;20480;-67
2023/07/23 10:34:31;;;;;;;50.17;25.70;;;31.30;72.90;;;;;;5096320;28;20032;-67
2023/07/23 10:37:10;;;;;;;46.00;21.98;;;31.20;67.90;;;;;;5090710;28;20111;-67
2023/07/23 10:39:41;;;;;;;54.85;23.42;;;30.90;68.10;;;;;;5096189;28;20027;-67
2023/07/23 10:42:08;;;;;;;48.92;24.33;;;31.00;79.90;;;;;;5096002;28;20042;-67
2023/07/23 10:44:37;;;;;;;57.03;24.65;;;31.10;69.00;;;;;;5096253;28;20027;-67
2023/07/23 10:47:32;;;;;;;39.78;22.08;;;30.60;69.20;;;;;;5096072;28;20032;-67
2023/07/23 10:50:12;;;;;;;45.10;22.88;;;30.80;69.40;;;;;;5095924;28;20173;-66
2023/07/23 10:52:38;;;;;;;46.03;23.77;;;30.80;69.60;;;;;;5094644;28;20103;-66
2023/07/23 10:55:07;;;;;;;37.03;19.95;;;30.80;69.40;;;;;;5095844;28;20385;-66
2023/07/23 10:57:40;;;;;;;48.13;24.00;;;30.60;65.10;;;;;;5094588;28;20024;-67
2023/07/23 11:00:27;;;;;;;67.20;29.60;;;30.60;69.80;;;;;;5095808;28;20095;-67
2023/07/23 11:02:53;;;;;;;89.80;37.22;;;31.00;73.20;;;;;;5094205;28;20434;-67
2023/07/23 11:05:22;;;;;;;95.53;39.20;;;31.20;73.40;;;;;;5094277;28;20023;-67
2023/07/23 11:08:27;;;;;;;83.13;33.75;;;31.20;71.40;;;;;;5077475;28;20056;-67
2023/07/23 11:11:02;;;;;;;80.95;34.40;;;31.50;67.80;;;;;;5094952;28;20055;-67
2023/07/23 11:13:32;;;;;;;87.55;35.67;;;31.90;70.50;;;;;;5094185;28;20063;-67
2023/07/23 11:15:59;;;;;;;110.63;44.47;;;32.00;70.90;;;;;;5095401;28;20115;-68
2023/07/23 11:18:30;;;;;;;94.82;39.10;;;32.10;70.40;;;;;;5095350;28;20053;-68
2023/07/23 11:20:57;;;;;;;54.97;25.35;;;32.20;67.20;;;;;;5098610;28;20408;-68
2023/07/23 11:23:25;;;;;;;83.40;35.28;;;30.70;64.20;;;;;;5114413;28;20032;-68
2023/07/23 11:25:52;;;;;;;62.88;28.27;;;31.80;71.60;;;;;;5114278;28;20650;-68
2023/07/23 11:28:22;;;;;;;58.58;27.50;;;32.50;63.70;;;;;;5115638;28;20030;-68
2023/07/23 11:30:50;;;;;;;62.05;27.00;;;32.50;62.30;;;;;;5080443;28;20027;-68
2023/07/23 11:33:17;;;;;;;55.42;25.23;;;32.80;66.00;;;;;;5114257;28;20032;-68
2023/07/23 11:35:43;;;;;;;65.47;29.45;;;33.20;68.00;;;;;;5115508;28;20028;-68
2023/07/23 11:38:09;;;;;;;53.72;24.42;;;33.60;65.00;;;;;;5115484;28;20084;-67
2023/07/23 11:40:38;;;;;;;46.55;21.98;;;33.60;59.30;;;;;;5113718;28;20039;-68
2023/07/23 11:43:05;;;;;;;49.72;23.80;;;32.90;62.30;;;;;;5115515;28;20031;-67
2023/07/23 11:45:41;;;;;;;53.60;25.15;;;33.20;61.70;;;;;;5115443;28;20110;-68
2023/07/23 11:48:17;;;;;;;52.15;24.98;;;33.60;60.30;;;;;;5115204;28;20020;-68
2023/07/23 11:50:48;;;;;;;52.90;23.42;;;33.90;63.10;;;;;;5115083;28;20031;-68
2023/07/23 11:53:33;;;;;;;48.83;23.33;;;34.00;61.30;;;;;;5114095;28;20035;-68
2023/07/23 11:56:10;;;;;;;50.55;23.63;;;33.50;60.90;;;;;;5115228;28;20049;-68
2023/07/23 11:58:37;;;;;;;46.38;24.30;;;34.00;55.70;;;;;;5114850;28;20028;-68
2023/07/23 12:01:04;;;;;;;44.72;22.85;;;34.20;57.80;;;;;;5115094;28;20387;-68
2023/07/23 12:03:46;;;;;;;46.78;22.27;;;34.20;57.80;;;;;;5115180;28;20024;-68
2023/07/23 12:06:14;;;;;;;39.75;20.75;;;34.40;56.50;;;;;;5115127;28;20028;-68
2023/07/23 12:08:43;;;;;;;36.67;18.42;;;34.20;56.30;;;;;;5113704;28;20053;-68
2023/07/23 12:11:13;;;;;;;34.72;17.58;;;34.30;56.50;;;;;;5114826;28;20032;-67
2023/07/23 12:14:02;;;;;;;32.22;17.83;;;34.20;55.30;;;;;;5115002;28;20016;-68
2023/07/23 12:16:40;;;;;;;36.92;18.50;;;34.10;58.70;;;;;;5114900;28;20035;-68
2023/07/23 12:19:12;;;;;;;31.60;17.48;;;33.80;58.80;;;;;;5114981;28;20031;-68
2023/07/23 12:21:43;;;;;;;35.85;18.48;;;34.20;56.10;;;;;;5105500;28;20044;-68
2023/07/23 12:24:17;;;;;;;50.00;24.48;;;34.00;56.30;;;;;;5094540;28;20028;-68
2023/07/23 12:26:44;;;;;;;53.42;25.52;;;34.40;56.80;;;;;;5093096;28;20032;-68